»·PEaware :: N300DG 49X-L52

N300DG :: 49X-L52

FLIGHT INFORMATION

Flight Status: Arrived
Operator: Privately registered:
United States
More flights under this callsign
Pilot: Tim M. (868)
Aircraft: SOCATA TBM-900
(TBM9)
More flights by this aircraft type
Origin: 49X Chemehuevi Valley
United States
Destination: L52 Oceano Co
United States
More flights between these airports :: More routes between these airports
Route: +ONLYY FROUN
File this flight plan on PilotEdge
Remarks:
Altitude:
(Current/Filed)
30,000ft
Speed:
(Current/Filed)
314kts
Departed: 04-Nov-20 06:54 PM
Arrived: 04-Nov-20 08:03 PM
Distance/Time
Traveled:
307nm/1:09
Distance/Time
To Go:
Arrived

Flight Plot

Page will automatically refresh every two minutes.

Flight plan parsing failed; only flown route is shown


Map Options




Map Legend


Flown Route
Filed Route
Departure Airport
Arrival Airport
Navaid (VOR, NDB)
Fix

Horizontal Profiles

Position Reports

Time Latitude Longitude Heading Altitude Ground
Speed
04-Nov-20 18:44 34.529432 -114.430281 180 618ft 0kts
04-Nov-20 18:45 34.529432 -114.430281 180 618ft 0kts
04-Nov-20 18:46 34.529432 -114.430281 180 618ft 0kts
04-Nov-20 18:47 34.529432 -114.430281 180 618ft 0kts
04-Nov-20 18:48 34.529432 -114.430281 180 618ft 0kts
04-Nov-20 18:49 34.528886 -114.430777 225 618ft 7kts
04-Nov-20 18:50 34.528855 -114.430819 231 618ft 0kts
04-Nov-20 18:51 34.525176 -114.430993 181 618ft 12kts
04-Nov-20 18:52 34.522058 -114.431572 274 618ft 10kts
04-Nov-20 18:53 34.545493 -114.432535 357 1550ft 137kts
04-Nov-20 18:54 34.565044 -114.455979 233 4130ft 138kts
04-Nov-20 18:55 34.529492 -114.490452 219 5906ft 176kts
04-Nov-20 18:56 34.513422 -114.541211 266 7975ft 178kts
04-Nov-20 18:57 34.505780 -114.602473 262 10094ft 188kts
04-Nov-20 18:58 34.497175 -114.665560 261 12312ft 194kts
04-Nov-20 18:59 34.488249 -114.730643 261 14486ft 199kts
04-Nov-20 19:00 34.479065 -114.797370 261 16598ft 205kts
04-Nov-20 19:01 34.469531 -114.866358 261 18723ft 210kts
04-Nov-20 19:02 34.459672 -114.937375 261 20699ft 219kts
04-Nov-20 19:04 34.456579 -115.011178 270 22686ft 224kts
04-Nov-20 19:05 34.455896 -115.087969 270 24577ft 232kts
04-Nov-20 19:06 34.455123 -115.167639 270 26389ft 241kts
04-Nov-20 19:07 34.454257 -115.252029 271 28252ft 249kts
04-Nov-20 19:08 34.453291 -115.339801 271 29854ft 258kts
04-Nov-20 19:09 34.452177 -115.435596 270 30220ft 298kts
04-Nov-20 19:10 34.450810 -115.542846 270 30208ft 318kts
04-Nov-20 19:11 34.449302 -115.654129 269 30203ft 325kts
04-Nov-20 19:12 34.447689 -115.766357 269 30200ft 325kts
04-Nov-20 19:13 34.445964 -115.879326 269 30200ft 325kts
04-Nov-20 19:14 34.444144 -115.991697 269 30231ft 325kts
04-Nov-20 19:15 34.442224 -116.103930 269 30291ft 325kts
04-Nov-20 19:16 34.440216 -116.215767 269 30330ft 326kts
04-Nov-20 19:17 34.438079 -116.328167 269 30330ft 327kts
04-Nov-20 19:18 34.435844 -116.440707 269 30331ft 327kts
04-Nov-20 19:19 34.433509 -116.553090 269 30331ft 327kts
04-Nov-20 19:20 34.431065 -116.665859 268 30328ft 328kts
04-Nov-20 19:21 34.428518 -116.778398 268 30328ft 328kts
04-Nov-20 19:21 34.426326 -116.872014 268 30328ft 328kts
04-Nov-20 19:23 34.423128 -117.003021 268 30304ft 329kts
04-Nov-20 19:23 34.420749 -117.097215 268 30283ft 330kts
04-Nov-20 19:25 34.417292 -117.229137 268 30275ft 330kts
04-Nov-20 19:25 34.414724 -117.323780 268 30275ft 331kts
04-Nov-20 19:26 34.411538 -117.437697 268 30276ft 332kts
04-Nov-20 19:27 34.408220 -117.552457 268 30051ft 340kts
04-Nov-20 19:28 34.404565 -117.674368 267 28565ft 363kts
04-Nov-20 19:29 34.400688 -117.799741 267 27035ft 367kts
04-Nov-20 19:30 34.419950 -117.919406 289 25458ft 356kts
04-Nov-20 19:31 34.450507 -118.033655 288 24238ft 341kts
04-Nov-20 19:32 34.478529 -118.139950 288 24225ft 319kts
04-Nov-20 19:33 34.505370 -118.242160 288 24228ft 313kts
04-Nov-20 19:34 34.531994 -118.343948 288 24229ft 312kts
04-Nov-20 19:35 34.558562 -118.445903 288 24230ft 311kts
04-Nov-20 19:36 34.585094 -118.548140 288 24230ft 311kts
04-Nov-20 19:37 34.611397 -118.649867 288 24230ft 311kts
04-Nov-20 19:38 34.637725 -118.752087 288 24227ft 311kts
04-Nov-20 19:39 34.663969 -118.854378 288 24214ft 311kts
04-Nov-20 19:40 34.690162 -118.956867 287 24179ft 312kts
04-Nov-20 19:41 34.716195 -119.059140 287 24147ft 312kts
04-Nov-20 19:42 34.742038 -119.161053 287 24154ft 311kts
04-Nov-20 19:43 34.767927 -119.263551 287 24164ft 311kts
04-Nov-20 19:44 34.793691 -119.365940 287 24175ft 311kts
04-Nov-20 19:45 34.819490 -119.468907 287 24186ft 311kts
04-Nov-20 19:46 34.845051 -119.571316 287 24196ft 311kts
04-Nov-20 19:47 34.870931 -119.675422 287 23167ft 317kts
04-Nov-20 19:48 34.896445 -119.778527 287 21650ft 315kts
04-Nov-20 19:49 34.921788 -119.881278 287 20126ft 311kts
04-Nov-20 19:50 34.946649 -119.982499 287 18591ft 298kts
04-Nov-20 19:51 34.970260 -120.078979 287 17047ft 287kts
04-Nov-20 19:52 34.974657 -120.173021 246 15413ft 280kts
04-Nov-20 19:53 34.943837 -120.261059 246 12872ft 275kts
04-Nov-20 19:54 34.965352 -120.340191 301 10675ft 222kts
04-Nov-20 19:55 34.992067 -120.395464 303 8396ft 162kts
04-Nov-20 19:56 35.016072 -120.445128 303 5235ft 169kts
04-Nov-20 19:57 35.037995 -120.490502 303 1904ft 144kts
04-Nov-20 19:58 35.053896 -120.523556 298 1509ft 99kts
04-Nov-20 19:59 35.067666 -120.552812 298 1182ft 94kts
04-Nov-20 20:00 35.079883 -120.582573 304 1080ft 94kts
04-Nov-20 20:01 35.094074 -120.608476 302 351ft 86kts
04-Nov-20 20:02 35.102751 -120.623980 44 19ft 6kts
04-Nov-20 20:03 35.103295 -120.624432 209 19ft 0kts
04-Nov-20 20:04 35.103295 -120.624432 209 19ft 0kts
04-Nov-20 20:05 35.103295 -120.624432 209 19ft 0kts
04-Nov-20 20:06 35.103295 -120.624432 209 19ft 0kts
04-Nov-20 20:07 35.103295 -120.624432 209 19ft 0kts
04-Nov-20 20:08 35.103295 -120.624432 209 19ft 0kts
04-Nov-20 20:09 35.103295 -120.624432 209 19ft 0kts
04-Nov-20 20:10 35.103295 -120.624432 209 19ft 0kts

Navigation Log

Ident Type
Flight plan parsing failed, navigation log unavailable